createdAt,value
2023-04-12T00:02:42.735Z,10.00
2023-04-12T00:07:47.118Z,8.50
2023-04-12T00:12:49.783Z,9.05
2023-04-12T00:17:52.013Z,9.27
2023-04-12T00:22:54.180Z,8.55
2023-04-12T00:27:56.538Z,8.18
2023-04-12T00:32:59.770Z,8.80
2023-04-12T00:38:03.987Z,8.65
2023-04-12T00:43:06.098Z,8.85
2023-04-12T00:48:08.559Z,8.98
2023-04-12T00:53:13.878Z,8.85
2023-04-12T00:58:16.892Z,8.80
2023-04-12T01:03:24.353Z,7.50
2023-04-12T01:08:40.894Z,7.65
2023-04-12T01:13:49.857Z,7.80
2023-04-12T01:18:54.366Z,8.50
2023-04-12T01:24:14.988Z,7.95
2023-04-12T01:29:20.028Z,8.27
2023-04-12T01:34:25.270Z,8.30
2023-04-12T01:39:28.675Z,7.85
2023-04-12T01:44:30.859Z,7.78
2023-04-12T01:49:43.499Z,8.88
2023-04-12T01:54:51.422Z,8.20
2023-04-12T01:59:57.295Z,8.88
2023-04-12T02:05:01.120Z,9.05
2023-04-12T02:10:03.716Z,7.43
2023-04-12T02:15:08.397Z,7.88
2023-04-12T02:20:12.199Z,8.77
2023-04-12T02:25:15.798Z,8.35
2023-04-12T02:30:18.205Z,8.30
2023-04-12T02:35:20.521Z,9.15
2023-04-12T02:40:22.923Z,9.43
2023-04-12T02:45:25.035Z,8.55
2023-04-12T02:50:27.347Z,10.00
2023-04-12T02:55:30.908Z,10.43
2023-04-12T03:00:33.176Z,8.88
2023-04-12T03:05:35.316Z,9.45
2023-04-12T03:10:37.475Z,7.30
2023-04-12T03:15:40.178Z,8.50
2023-04-12T03:20:46.810Z,8.40
2023-04-12T03:25:49.584Z,8.25
2023-04-12T03:30:51.832Z,8.77
2023-04-12T03:35:54.113Z,9.20
2023-04-12T03:40:56.243Z,9.95
2023-04-12T03:45:58.693Z,10.20
2023-04-12T03:51:08.732Z,10.02
2023-04-12T04:01:14.224Z,9.15
2023-04-12T04:06:17.823Z,10.60
2023-04-12T04:11:19.888Z,8.93
2023-04-12T04:16:22.098Z,9.35
2023-04-12T04:21:24.370Z,9.10
2023-04-12T04:26:32.779Z,10.50
2023-04-12T04:31:34.960Z,9.68
2023-04-12T04:36:38.339Z,9.10
2023-04-12T04:41:41.671Z,9.02
2023-04-12T04:46:43.918Z,9.27
2023-04-12T04:51:46.239Z,9.40
2023-04-12T04:56:48.431Z,10.02
2023-04-12T05:01:52.779Z,8.70
2023-04-12T05:06:55.123Z,9.23
2023-04-12T05:11:57.232Z,9.98
2023-04-12T05:16:59.532Z,9.73
2023-04-12T05:22:01.785Z,9.45
2023-04-12T05:27:04.058Z,9.80
2023-04-12T05:32:06.345Z,10.32
2023-04-12T05:37:08.586Z,10.98
2023-04-12T05:42:10.821Z,9.85
2023-04-12T05:47:12.961Z,11.02
2023-04-12T05:52:15.151Z,10.60
2023-04-12T05:57:18.058Z,11.10
2023-04-12T06:02:20.407Z,10.98
2023-04-12T06:07:22.724Z,10.13
2023-04-12T06:12:24.982Z,10.18
2023-04-12T06:17:27.052Z,9.80
2023-04-12T06:22:29.207Z,8.70
2023-04-12T06:27:31.502Z,8.38
2023-04-12T06:32:34.264Z,7.57
2023-04-12T06:37:36.467Z,8.00
2023-04-12T06:42:39.007Z,8.38
2023-04-12T06:47:41.148Z,7.10
2023-04-12T06:52:43.370Z,7.63
2023-04-12T06:57:46.850Z,6.93
2023-04-12T07:02:49.497Z,6.90
2023-04-12T07:07:51.694Z,6.72
2023-04-12T07:12:53.871Z,5.85
2023-04-12T07:17:56.635Z,6.45
2023-04-12T07:22:59.010Z,7.07
2023-04-12T07:28:01.126Z,6.70
2023-04-12T07:33:18.661Z,7.20
2023-04-12T07:38:22.144Z,6.63
2023-04-12T07:43:24.349Z,6.57
2023-04-12T07:48:26.910Z,6.10
2023-04-12T07:53:29.486Z,6.72
2023-04-12T07:58:32.972Z,6.15
2023-04-12T08:03:35.229Z,6.15
2023-04-12T08:08:37.443Z,5.85
2023-04-12T08:13:39.651Z,5.43
2023-04-12T08:18:41.924Z,5.20
2023-04-12T08:23:44.138Z,5.05
2023-04-12T08:28:46.416Z,5.65
2023-04-12T08:33:48.572Z,5.32
2023-04-12T08:38:52.823Z,5.78
2023-04-12T08:43:58.690Z,6.05
2023-04-12T08:49:01.141Z,6.28
2023-04-12T08:54:03.353Z,5.60
2023-04-12T08:59:06.822Z,5.78
2023-04-12T09:04:09.438Z,5.50
2023-04-12T09:09:12.006Z,4.63
2023-04-12T09:14:24.638Z,4.68
2023-04-12T09:19:37.280Z,4.47
2023-04-12T09:24:53.253Z,4.25
2023-04-12T09:30:11.013Z,4.45
2023-04-12T09:35:13.102Z,3.88
2023-04-12T09:40:15.264Z,4.00
2023-04-12T09:45:25.891Z,3.38
2023-04-12T09:50:30.649Z,3.53
2023-04-12T09:55:33.024Z,3.72
2023-04-12T10:00:37.179Z,4.13
2023-04-12T10:05:41.550Z,4.32
2023-04-12T10:10:46.828Z,3.55
2023-04-12T10:15:51.368Z,3.85
2023-04-12T10:20:53.678Z,4.20
2023-04-12T10:25:57.496Z,4.28
2023-04-12T10:31:00.322Z,4.20
2023-04-12T10:36:13.396Z,3.72
2023-04-12T10:41:20.990Z,3.38
2023-04-12T10:46:39.570Z,3.17
2023-04-12T10:52:11.151Z,3.28
2023-04-12T10:57:44.436Z,3.00
2023-04-12T11:03:12.938Z,3.50
2023-04-12T11:08:15.822Z,3.00
2023-04-12T11:13:18.071Z,3.25
2023-04-12T11:18:20.393Z,2.88
2023-04-12T11:23:22.775Z,5.78
2023-04-12T11:28:29.241Z,2.72
2023-04-12T11:33:37.312Z,3.25
2023-04-12T11:38:39.696Z,3.53
2023-04-12T11:43:42.877Z,3.22
2023-04-12T11:48:47.305Z,3.45
2023-04-12T11:53:54.008Z,3.15
2023-04-12T11:58:56.252Z,3.03
2023-04-12T12:04:00.314Z,3.05
2023-04-12T12:09:04.364Z,3.25
2023-04-12T12:14:09.292Z,2.90
2023-04-12T12:19:11.361Z,2.80
2023-04-12T12:24:15.118Z,3.10
2023-04-12T12:29:22.456Z,2.63
2023-04-12T12:34:24.676Z,2.45
2023-04-12T12:39:27.230Z,3.10
2023-04-12T12:44:29.353Z,2.50
2023-04-12T12:49:31.779Z,3.35
2023-04-12T12:54:41.273Z,3.00
2023-04-12T12:59:44.029Z,2.80
2023-04-12T13:04:46.470Z,3.05
2023-04-12T13:09:49.009Z,3.30
2023-04-12T13:14:51.203Z,3.13
2023-04-12T13:19:53.611Z,2.80
2023-04-12T13:24:56.396Z,2.80
2023-04-12T13:29:58.623Z,2.85
2023-04-12T13:35:00.977Z,3.25
2023-04-12T13:40:04.138Z,3.22
2023-04-12T13:45:07.506Z,2.95
2023-04-12T13:50:12.396Z,3.47
2023-04-12T13:55:14.500Z,3.15
2023-04-12T14:00:17.276Z,3.08
2023-04-12T14:05:19.604Z,3.40
2023-04-12T14:10:21.934Z,3.00
2023-04-12T14:15:24.170Z,3.38
2023-04-12T14:20:26.606Z,3.65
2023-04-12T14:25:29.065Z,3.60
2023-04-12T14:30:31.628Z,3.00
2023-04-12T14:35:33.710Z,3.17
2023-04-12T14:40:36.755Z,2.70
2023-04-12T14:45:39.113Z,2.35
2023-04-12T14:50:44.172Z,2.63
2023-04-12T14:55:47.188Z,3.05
2023-04-12T15:00:49.905Z,3.10
2023-04-12T15:05:52.056Z,2.97
2023-04-12T15:10:54.135Z,2.67
2023-04-12T15:15:56.517Z,2.78
2023-04-12T15:21:00.532Z,3.00
2023-04-12T15:26:03.736Z,2.90
2023-04-12T15:31:06.596Z,2.70
2023-04-12T15:36:08.937Z,2.72
2023-04-12T15:41:11.447Z,2.75
2023-04-12T15:46:14.793Z,2.70
2023-04-12T15:51:17.044Z,3.00
2023-04-12T15:56:24.357Z,4.03
2023-04-12T16:01:26.794Z,2.60
2023-04-12T16:06:31.864Z,2.30
2023-04-12T16:11:34.406Z,2.60
2023-04-12T16:16:36.976Z,2.60
2023-04-12T16:21:44.574Z,2.63
2023-04-12T16:26:50.220Z,2.30
2023-04-12T16:31:52.560Z,2.50
2023-04-12T16:36:54.820Z,2.17
2023-04-12T16:41:56.994Z,2.70
2023-04-12T16:46:59.624Z,2.90
2023-04-12T16:52:02.784Z,3.00
2023-04-12T16:57:05.310Z,3.40
2023-04-12T17:02:10.842Z,2.50
2023-04-12T17:07:12.999Z,3.20
2023-04-12T17:12:15.078Z,3.60
2023-04-12T17:17:17.177Z,3.42
2023-04-12T17:22:19.567Z,4.00
2023-04-12T17:27:22.158Z,3.45
2023-04-12T17:32:24.339Z,3.42
2023-04-12T17:37:28.044Z,4.30
2023-04-12T17:42:30.284Z,3.92
2023-04-12T17:47:35.372Z,4.05
2023-04-12T17:52:38.293Z,4.35
2023-04-12T17:57:41.010Z,4.35
2023-04-12T18:02:47.382Z,4.03
2023-04-12T18:07:50.156Z,4.28
2023-04-12T18:12:52.562Z,4.95
2023-04-12T18:17:54.720Z,5.05
2023-04-12T18:22:57.171Z,5.05
2023-04-12T18:27:59.410Z,5.00
2023-04-12T18:33:04.115Z,4.95
2023-04-12T18:38:06.414Z,5.32
2023-04-12T18:43:08.828Z,5.63
2023-04-12T18:48:11.213Z,6.05
2023-04-12T18:53:13.566Z,6.63
2023-04-12T18:58:16.425Z,7.13
2023-04-12T19:03:18.948Z,7.03
2023-04-12T19:08:21.591Z,9.23
2023-04-12T19:13:23.847Z,7.80
2023-04-12T19:18:29.798Z,7.20
2023-04-12T19:23:32.631Z,9.23
2023-04-12T19:28:34.775Z,7.85
2023-04-12T19:33:37.511Z,8.70
2023-04-12T19:38:41.738Z,9.30
2023-04-12T19:43:44.150Z,10.65
2023-04-12T19:48:46.785Z,9.25
2023-04-12T19:53:50.946Z,10.23
2023-04-12T19:58:55.249Z,9.82
2023-04-12T20:03:57.456Z,11.05
2023-04-12T20:09:00.944Z,11.10
2023-04-12T20:14:03.442Z,13.73
2023-04-12T20:19:05.650Z,11.00
2023-04-12T20:24:09.080Z,9.80
2023-04-12T20:29:11.512Z,12.18
2023-04-12T20:34:13.704Z,11.23
2023-04-12T20:39:16.695Z,11.18
2023-04-12T20:44:20.006Z,10.45
2023-04-12T20:49:22.219Z,10.35
2023-04-12T20:54:30.339Z,11.57
2023-04-12T20:59:33.750Z,9.68
2023-04-12T21:04:36.648Z,11.00
2023-04-12T21:09:39.540Z,27.33
2023-04-12T21:14:41.666Z,14.52
2023-04-12T21:19:45.225Z,14.00
2023-04-12T21:24:47.434Z,11.70
2023-04-12T21:29:50.500Z,11.07
2023-04-12T21:34:52.702Z,11.00
2023-04-12T21:39:54.884Z,11.10
2023-04-12T21:44:57.076Z,8.48
2023-04-12T21:49:59.428Z,7.60
2023-04-12T21:55:02.177Z,6.07
2023-04-12T22:00:07.560Z,5.60
2023-04-12T22:05:10.256Z,5.70
2023-04-12T22:10:12.604Z,5.88
2023-04-12T22:15:16.749Z,5.97
2023-04-12T22:20:18.953Z,6.32
2023-04-12T22:25:22.302Z,6.38
2023-04-12T22:30:25.392Z,5.32
2023-04-12T22:35:27.620Z,6.30
2023-04-12T22:40:29.744Z,6.40
2023-04-12T22:45:33.576Z,6.20
2023-04-12T22:50:35.778Z,6.43
2023-04-12T22:55:40.103Z,6.13
2023-04-12T23:00:42.221Z,5.90
2023-04-12T23:05:47.636Z,6.72
2023-04-12T23:10:50.251Z,7.43
2023-04-12T23:15:52.464Z,7.40
2023-04-12T23:20:55.375Z,7.15
2023-04-12T23:25:57.566Z,7.32
2023-04-12T23:31:02.632Z,7.78
2023-04-12T23:36:05.848Z,8.00
2023-04-12T23:41:10.517Z,8.18
2023-04-12T23:46:12.822Z,8.88
2023-04-12T23:51:15.443Z,8.35
2023-04-12T23:56:17.764Z,7.90
